createdAt,value
2019-05-07T00:00:59.466Z,0.57
2019-05-07T00:03:26.597Z,0.90
2019-05-07T00:05:53.999Z,0.90
2019-05-07T00:08:22.782Z,0.53
2019-05-07T00:10:47.974Z,0.90
2019-05-07T00:13:15.112Z,0.83
2019-05-07T00:15:42.266Z,0.70
2019-05-07T00:18:09.361Z,0.60
2019-05-07T00:20:36.520Z,0.80
2019-05-07T00:23:03.658Z,0.60
2019-05-07T00:25:32.751Z,0.53
2019-05-07T00:27:58.133Z,0.60
2019-05-07T00:30:25.229Z,0.60
2019-05-07T00:32:53.127Z,0.50
2019-05-07T00:35:22.575Z,0.47
2019-05-07T00:37:52.415Z,0.47
2019-05-07T00:41:23.043Z,0.70
2019-05-07T00:43:52.539Z,0.70
2019-05-07T00:46:22.633Z,0.97
2019-05-07T00:48:49.291Z,0.60
2019-05-07T00:51:22.709Z,0.67
2019-05-07T00:53:51.917Z,0.70
2019-05-07T00:56:16.819Z,0.70
2019-05-07T00:58:43.910Z,0.70
2019-05-07T01:01:13.035Z,0.60
2019-05-07T01:03:38.452Z,0.70
2019-05-07T01:06:05.808Z,0.60
2019-05-07T01:08:33.048Z,0.70
2019-05-07T01:11:02.208Z,0.87
2019-05-07T01:13:27.919Z,0.60
2019-05-07T01:15:55.063Z,0.60
2019-05-07T01:18:23.246Z,0.50
2019-05-07T01:20:49.369Z,0.87
2019-05-07T01:23:16.447Z,0.50
2019-05-07T01:25:43.596Z,0.67
2019-05-07T01:28:13.013Z,0.67
2019-05-07T01:30:37.889Z,0.70
2019-05-07T01:33:12.268Z,0.87
2019-05-07T01:36:13.980Z,0.77
2019-05-07T01:38:42.656Z,0.83
2019-05-07T01:41:08.243Z,0.70
2019-05-07T01:43:35.403Z,0.67
2019-05-07T01:46:03.150Z,0.80
2019-05-07T01:48:29.643Z,0.60
2019-05-07T01:50:56.684Z,0.60
2019-05-07T01:53:23.831Z,0.90
2019-05-07T01:55:52.348Z,1.00
2019-05-07T01:58:18.228Z,0.70
2019-05-07T02:00:45.372Z,0.70
2019-05-07T02:03:18.866Z,0.73
2019-05-07T02:05:52.630Z,0.70
2019-05-07T02:08:22.281Z,0.73
2019-05-07T02:10:54.960Z,0.90
2019-05-07T02:13:22.418Z,0.80
2019-05-07T02:16:00.270Z,0.80
2019-05-07T02:18:16.808Z,0.43
2019-05-07T02:20:44.224Z,0.70
2019-05-07T02:23:12.833Z,0.70
2019-05-07T02:25:38.486Z,0.80
2019-05-07T02:28:05.597Z,0.63
2019-05-07T02:30:35.013Z,0.60
2019-05-07T02:33:03.398Z,0.80
2019-05-07T02:35:27.252Z,0.60
2019-05-07T02:38:02.890Z,0.80
2019-05-07T02:40:35.829Z,0.97
2019-05-07T02:43:03.149Z,0.70
2019-05-07T02:45:35.812Z,0.80
2019-05-07T02:48:03.615Z,0.60
2019-05-07T02:50:35.203Z,0.77
2019-05-07T02:53:06.291Z,0.80
2019-05-07T02:55:39.435Z,0.73
2019-05-07T02:58:06.597Z,0.77
2019-05-07T03:00:33.813Z,0.80
2019-05-07T03:03:03.767Z,0.60
2019-05-07T03:05:28.077Z,0.70
2019-05-07T03:07:55.250Z,0.80
2019-05-07T03:10:23.698Z,1.00
2019-05-07T03:12:49.465Z,0.70
2019-05-07T03:15:16.552Z,0.70
2019-05-07T03:17:43.661Z,0.63
2019-05-07T03:20:13.959Z,0.40
2019-05-07T03:22:42.830Z,0.67
2019-05-07T03:25:15.203Z,0.80
2019-05-07T03:27:43.177Z,0.70
2019-05-07T03:30:16.907Z,0.73
2019-05-07T03:32:47.806Z,0.83
2019-05-07T03:35:27.259Z,0.70
2019-05-07T03:37:54.704Z,0.67
2019-05-07T03:40:19.166Z,0.70
2019-05-07T03:42:46.321Z,0.50
2019-05-07T03:45:23.137Z,0.80
2019-05-07T03:47:54.174Z,0.70
2019-05-07T03:50:23.100Z,0.67
2019-05-07T03:52:47.040Z,0.60
2019-05-07T03:55:14.664Z,0.97
2019-05-07T03:57:43.571Z,0.63
2019-05-07T04:00:08.636Z,0.50
2019-05-07T04:02:35.739Z,0.80
2019-05-07T04:05:04.279Z,0.60
2019-05-07T04:07:33.393Z,0.60
2019-05-07T04:09:57.421Z,0.97
2019-05-07T04:12:24.573Z,0.87
2019-05-07T04:14:53.356Z,0.87
2019-05-07T04:17:23.194Z,0.80
2019-05-07T04:19:46.132Z,0.70
2019-05-07T04:22:13.397Z,0.80
2019-05-07T04:24:45.075Z,0.80
2019-05-07T04:27:16.851Z,0.73
2019-05-07T04:29:44.026Z,0.90
2019-05-07T04:32:14.155Z,0.97
2019-05-07T04:35:03.875Z,1.00
2019-05-07T04:37:29.367Z,0.90
2019-05-07T04:39:56.489Z,0.80
2019-05-07T04:42:24.312Z,0.63
2019-05-07T04:44:53.751Z,1.13
2019-05-07T04:47:32.788Z,0.83
2019-05-07T04:49:45.101Z,0.80
2019-05-07T04:52:15.494Z,1.00
2019-05-07T04:54:43.664Z,0.80
2019-05-07T04:57:14.099Z,0.80
2019-05-07T04:59:42.870Z,1.10
2019-05-07T05:02:13.465Z,0.90
2019-05-07T05:04:40.051Z,1.10
2019-05-07T05:07:07.185Z,0.90
2019-05-07T05:09:34.403Z,1.20
2019-05-07T05:12:02.713Z,1.10
2019-05-07T05:14:28.667Z,1.10
2019-05-07T05:16:55.835Z,1.30
2019-05-07T05:19:23.137Z,0.93
2019-05-07T05:21:55.966Z,1.00
2019-05-07T05:24:29.678Z,1.03
2019-05-07T05:26:56.851Z,0.97
2019-05-07T05:29:24.035Z,1.27
2019-05-07T05:31:52.880Z,1.27
2019-05-07T05:34:18.295Z,0.90
2019-05-07T05:36:45.512Z,1.20
2019-05-07T05:39:13.273Z,0.90
2019-05-07T05:41:42.110Z,1.20
2019-05-07T05:44:13.140Z,0.90
2019-05-07T05:46:42.704Z,1.30
2019-05-07T05:49:07.431Z,1.00
2019-05-07T05:51:42.982Z,1.17
2019-05-07T05:54:14.564Z,1.10
2019-05-07T05:56:48.443Z,0.70
2019-05-07T05:59:25.402Z,0.90
2019-05-07T06:01:52.276Z,0.80
2019-05-07T06:04:24.026Z,1.13
2019-05-07T06:07:08.048Z,1.00
2019-05-07T06:09:35.036Z,0.90
2019-05-07T06:12:09.681Z,0.90
2019-05-07T06:14:42.480Z,1.00
2019-05-07T06:17:13.133Z,1.10
2019-05-07T06:19:44.595Z,1.17
2019-05-07T06:22:24.365Z,0.70
2019-05-07T06:24:56.409Z,0.70
2019-05-07T06:27:22.905Z,0.93
2019-05-07T06:29:48.695Z,0.90
2019-05-07T06:32:16.067Z,0.77
2019-05-07T06:34:44.783Z,0.87
2019-05-07T06:37:11.882Z,1.10
2019-05-07T06:41:44.187Z,1.00
2019-05-07T06:44:16.204Z,1.20
2019-05-07T06:46:43.301Z,1.00
2019-05-07T06:49:12.522Z,1.00
2019-05-07T06:51:37.552Z,0.93
2019-05-07T06:54:04.672Z,0.90
2019-05-07T06:56:32.563Z,0.90
2019-05-07T06:59:09.028Z,1.27
2019-05-07T07:01:42.379Z,1.20
2019-05-07T07:04:13.033Z,1.00
2019-05-07T07:06:45.574Z,0.90
2019-05-07T07:09:17.356Z,0.80
2019-05-07T07:11:49.211Z,0.83
2019-05-07T07:14:16.380Z,0.80
2019-05-07T07:16:43.537Z,1.03
2019-05-07T07:19:12.462Z,0.90
2019-05-07T07:21:37.835Z,0.87
2019-05-07T07:24:05.017Z,1.10
2019-05-07T07:26:32.842Z,1.20
2019-05-07T07:29:01.884Z,1.23
2019-05-07T07:31:32.534Z,0.80
2019-05-07T07:34:02.206Z,0.80
2019-05-07T07:36:28.059Z,0.63
2019-05-07T07:38:55.157Z,1.00
2019-05-07T07:41:29.823Z,0.90
2019-05-07T07:43:57.025Z,0.87
2019-05-07T07:46:24.254Z,0.60
2019-05-07T07:49:04.404Z,0.60
2019-05-07T07:51:18.447Z,0.80
2019-05-07T07:53:45.507Z,0.93
2019-05-07T07:56:18.380Z,1.00
2019-05-07T07:58:56.068Z,0.80
2019-05-07T08:01:27.896Z,0.80
2019-05-07T08:03:54.997Z,0.90
2019-05-07T08:06:22.607Z,0.93
2019-05-07T08:08:49.471Z,0.90
2019-05-07T08:11:16.575Z,0.90
2019-05-07T08:16:17.555Z,0.70
2019-05-07T08:18:44.756Z,1.30
2019-05-07T08:21:12.096Z,0.90
2019-05-07T08:23:39.046Z,0.80
2019-05-07T08:26:06.159Z,1.03
2019-05-07T08:28:33.299Z,1.07
2019-05-07T08:31:08.492Z,0.90
2019-05-07T08:33:39.921Z,0.60
2019-05-07T08:36:11.586Z,0.70
2019-05-07T08:38:42.671Z,0.80
2019-05-07T08:41:11.953Z,0.80
2019-05-07T08:43:36.916Z,1.07
2019-05-07T08:46:11.868Z,0.83
2019-05-07T08:48:42.426Z,0.47
2019-05-07T08:51:07.731Z,0.90
2019-05-07T08:53:34.841Z,0.97
2019-05-07T08:56:03.273Z,0.80
2019-05-07T08:58:29.076Z,0.90
2019-05-07T09:00:56.219Z,0.93
2019-05-07T09:03:29.116Z,0.93
2019-05-07T09:05:56.267Z,0.90
2019-05-07T09:08:23.436Z,0.83
2019-05-07T09:10:52.507Z,0.70
2019-05-07T09:13:17.800Z,1.27
2019-05-07T09:15:44.914Z,0.80
2019-05-07T09:18:12.489Z,1.17
2019-05-07T09:20:39.335Z,1.13
2019-05-07T09:23:06.459Z,1.17
2019-05-07T09:25:38.288Z,1.10
2019-05-07T09:28:05.445Z,1.10
2019-05-07T09:30:52.412Z,1.07
2019-05-07T09:33:26.252Z,1.10
2019-05-07T09:35:54.627Z,1.20
2019-05-07T09:38:22.305Z,1.10
2019-05-07T09:40:49.080Z,0.87
2019-05-07T09:43:16.270Z,1.00
2019-05-07T09:45:43.423Z,0.80
2019-05-07T09:48:11.961Z,0.90
2019-05-07T09:50:37.732Z,1.03
2019-05-07T09:53:04.836Z,0.70
2019-05-07T09:55:32.730Z,0.80
2019-05-07T09:57:59.226Z,0.80
2019-05-07T10:00:26.327Z,0.87
2019-05-07T10:02:56.359Z,0.63
2019-05-07T10:05:20.536Z,0.97
2019-05-07T10:07:47.624Z,0.80
2019-05-07T10:10:14.748Z,0.70
2019-05-07T10:12:48.286Z,1.00
2019-05-07T10:15:15.390Z,0.80
2019-05-07T10:17:46.791Z,0.80
2019-05-07T10:20:21.574Z,0.70
2019-05-07T10:22:42.832Z,0.73
2019-05-07T10:25:08.160Z,1.07
2019-05-07T10:27:35.233Z,0.77
2019-05-07T10:30:02.668Z,0.83
2019-05-07T10:32:29.499Z,0.70
2019-05-07T10:34:56.616Z,0.70
2019-05-07T10:37:23.875Z,1.07
2019-05-07T10:39:52.005Z,0.87
2019-05-07T10:42:18.527Z,0.70
2019-05-07T10:44:52.319Z,0.70
2019-05-07T10:47:23.311Z,0.90
2019-05-07T10:49:55.062Z,0.70
2019-05-07T10:52:22.837Z,0.53
2019-05-07T10:54:59.083Z,0.50
2019-05-07T10:57:16.487Z,0.80
2019-05-07T10:59:43.655Z,0.80
2019-05-07T11:02:14.159Z,0.60
2019-05-07T11:04:43.585Z,0.60
2019-05-07T11:07:08.720Z,0.80
2019-05-07T11:09:35.793Z,0.70
2019-05-07T11:12:02.905Z,0.70
2019-05-07T11:14:32.033Z,0.60
2019-05-07T11:17:02.622Z,0.87
2019-05-07T11:19:29.179Z,0.70
2019-05-07T11:21:56.316Z,0.50
2019-05-07T11:24:23.447Z,0.70
2019-05-07T11:26:53.008Z,0.80
2019-05-07T11:29:18.027Z,0.77
2019-05-07T11:31:45.214Z,0.70
2019-05-07T11:34:13.846Z,0.80
2019-05-07T11:36:39.475Z,0.80
2019-05-07T11:39:06.576Z,0.70
2019-05-07T11:41:39.618Z,1.20
2019-05-07T11:44:12.285Z,0.87
2019-05-07T11:46:44.400Z,0.97
2019-05-07T11:49:18.967Z,0.90
2019-05-07T11:51:51.680Z,0.50
2019-05-07T11:54:17.954Z,0.70
2019-05-07T11:56:45.058Z,0.80
2019-05-07T11:59:13.322Z,0.87
2019-05-07T12:01:47.205Z,0.50
2019-05-07T12:04:09.259Z,0.63
2019-05-07T12:06:36.717Z,0.80
2019-05-07T12:09:06.161Z,0.50
2019-05-07T12:11:33.635Z,0.90
2019-05-07T12:14:02.066Z,0.80
2019-05-07T12:16:27.921Z,0.50
2019-05-07T12:18:55.390Z,0.60
2019-05-07T12:21:24.295Z,0.57
2019-05-07T12:23:49.383Z,0.63
2019-05-07T12:26:16.527Z,0.60
2019-05-07T12:28:43.761Z,0.40
2019-05-07T12:31:18.399Z,0.50
2019-05-07T12:34:06.523Z,0.73
2019-05-07T12:36:33.694Z,0.50
2019-05-07T12:39:02.292Z,0.63
2019-05-07T12:41:28.896Z,0.77
2019-05-07T12:43:56.284Z,0.60
2019-05-07T12:46:23.421Z,0.60
2019-05-07T12:48:52.385Z,0.80
2019-05-07T12:51:30.537Z,1.00
2019-05-07T12:53:47.623Z,0.80
2019-05-07T12:56:14.801Z,0.80
2019-05-07T12:58:41.919Z,0.60
2019-05-07T13:01:13.737Z,0.53
2019-05-07T13:03:46.447Z,0.60
2019-05-07T13:06:13.641Z,0.80
2019-05-07T13:08:41.980Z,0.90
2019-05-07T13:11:07.908Z,0.50
2019-05-07T13:13:35.061Z,0.50
2019-05-07T13:16:02.962Z,0.80
2019-05-07T13:18:30.035Z,0.70
2019-05-07T13:20:57.152Z,0.87
2019-05-07T13:23:24.235Z,0.57
2019-05-07T13:25:52.288Z,0.67
2019-05-07T13:28:18.927Z,0.70
2019-05-07T13:30:46.065Z,0.67
2019-05-07T13:33:13.700Z,0.50
2019-05-07T13:35:42.042Z,0.60
2019-05-07T13:38:14.590Z,0.70
2019-05-07T13:40:46.455Z,0.67
2019-05-07T13:43:18.212Z,0.50
2019-05-07T13:45:57.755Z,0.63
2019-05-07T13:48:25.451Z,0.60
2019-05-07T13:50:52.571Z,0.90
2019-05-07T13:53:19.709Z,0.83
2019-05-07T13:55:46.819Z,0.60
2019-05-07T13:58:14.304Z,0.40
2019-05-07T14:00:45.676Z,0.70
2019-05-07T14:03:12.814Z,0.83
2019-05-07T14:05:39.939Z,0.53
2019-05-07T14:08:07.182Z,0.50
2019-05-07T14:10:34.385Z,1.00
2019-05-07T14:13:11.514Z,0.77
2019-05-07T14:15:28.648Z,0.60
2019-05-07T14:17:55.740Z,0.70
2019-05-07T14:20:22.847Z,0.53
2019-05-07T14:22:51.716Z,0.70
2019-05-07T14:25:17.252Z,0.53
2019-05-07T14:27:44.464Z,0.50
2019-05-07T14:30:12.942Z,0.50
2019-05-07T14:32:46.517Z,0.40
2019-05-07T14:35:24.122Z,0.60
2019-05-07T14:37:54.479Z,0.40
2019-05-07T14:40:22.341Z,0.47
2019-05-07T14:42:53.042Z,0.67
2019-05-07T14:45:23.506Z,0.60
2019-05-07T14:47:47.305Z,0.77
2019-05-07T14:50:14.399Z,0.60
2019-05-07T14:52:43.225Z,0.77
2019-05-07T14:55:08.665Z,0.70
2019-05-07T14:57:35.743Z,0.43
2019-05-07T15:00:03.469Z,0.60
2019-05-07T15:02:32.451Z,0.60
2019-05-07T15:04:57.715Z,0.40
2019-05-07T15:07:24.820Z,0.63
2019-05-07T15:09:52.148Z,0.70
2019-05-07T15:12:19.853Z,0.60
2019-05-07T15:14:47.129Z,0.60
2019-05-07T15:17:22.244Z,0.77
2019-05-07T15:19:48.141Z,0.77
2019-05-07T15:22:21.043Z,0.70
2019-05-07T15:24:48.424Z,0.50
2019-05-07T15:27:15.578Z,0.60
2019-05-07T15:29:43.970Z,0.53
2019-05-07T15:32:12.595Z,0.63
2019-05-07T15:34:41.973Z,0.50
2019-05-07T15:37:22.799Z,0.50
2019-05-07T15:39:50.104Z,0.50
2019-05-07T15:42:17.387Z,0.60
2019-05-07T15:44:45.212Z,0.50
2019-05-07T15:47:16.182Z,0.40
2019-05-07T15:49:44.296Z,0.60
2019-05-07T15:52:16.739Z,0.60
2019-05-07T15:54:44.089Z,0.70
2019-05-07T15:57:13.031Z,0.50
2019-05-07T15:59:41.779Z,0.57
2019-05-07T16:02:12.357Z,0.60
2019-05-07T16:04:39.424Z,0.63
2019-05-07T16:07:06.731Z,0.43
2019-05-07T16:09:41.865Z,0.40
2019-05-07T16:12:07.344Z,0.57
2019-05-07T16:14:34.593Z,0.73
2019-05-07T16:17:09.270Z,0.53
2019-05-07T16:19:36.545Z,0.60
2019-05-07T16:22:06.546Z,0.53
2019-05-07T16:24:33.692Z,0.50
2019-05-07T16:27:04.915Z,0.40
2019-05-07T16:29:28.119Z,0.40
2019-05-07T16:31:55.287Z,0.50
2019-05-07T16:34:24.626Z,0.40
2019-05-07T16:36:49.998Z,0.60
2019-05-07T16:39:17.198Z,0.50
2019-05-07T16:41:44.774Z,0.60
2019-05-07T16:44:12.422Z,0.60
2019-05-07T16:46:39.412Z,0.80
2019-05-07T16:49:06.600Z,0.60
2019-05-07T16:51:33.754Z,0.80
2019-05-07T16:54:03.193Z,0.80
2019-05-07T16:56:28.036Z,0.70
2019-05-07T16:59:01.724Z,0.73
2019-05-07T17:01:27.819Z,0.70
2019-05-07T17:03:56.456Z,0.70
2019-05-07T17:06:25.221Z,0.70
2019-05-07T17:09:02.670Z,0.80
2019-05-07T17:11:28.649Z,0.60
2019-05-07T17:13:55.832Z,0.80
2019-05-07T17:16:23.004Z,0.70
2019-05-07T17:18:51.870Z,0.60
2019-05-07T17:21:17.587Z,0.60
2019-05-07T17:23:44.903Z,0.60
2019-05-07T17:26:11.917Z,0.60
2019-05-07T17:28:39.028Z,0.50
2019-05-07T17:31:06.200Z,0.73
2019-05-07T17:33:33.407Z,0.60
2019-05-07T17:36:02.384Z,0.40
2019-05-07T17:38:27.651Z,0.70
2019-05-07T17:40:54.793Z,0.60
2019-05-07T17:43:22.135Z,0.70
2019-05-07T17:45:49.420Z,0.60
2019-05-07T17:48:16.756Z,0.40
2019-05-07T17:50:47.706Z,0.60
2019-05-07T17:53:14.960Z,0.50
2019-05-07T17:55:42.380Z,0.60
2019-05-07T17:58:09.188Z,0.83
2019-05-07T18:00:36.372Z,0.70
2019-05-07T18:03:10.312Z,0.40
2019-05-07T18:05:37.474Z,0.50
2019-05-07T18:08:04.560Z,0.60
2019-05-07T18:10:32.027Z,0.50
2019-05-07T18:12:58.945Z,0.67
2019-05-07T18:15:26.127Z,0.63
2019-05-07T18:18:00.164Z,0.73
2019-05-07T18:20:25.132Z,0.80
2019-05-07T18:22:52.535Z,0.50
2019-05-07T18:25:21.625Z,0.70
2019-05-07T18:27:46.832Z,0.70
2019-05-07T18:30:13.952Z,0.60
2019-05-07T18:32:43.862Z,0.70
2019-05-07T18:35:12.627Z,0.67
2019-05-07T18:37:42.779Z,0.60
2019-05-07T18:40:09.891Z,0.70
2019-05-07T18:42:37.051Z,0.60
2019-05-07T18:45:04.405Z,0.40
2019-05-07T18:47:33.105Z,0.67
2019-05-07T18:49:58.778Z,0.80
2019-05-07T18:52:25.921Z,0.47
2019-05-07T18:54:53.096Z,0.50
2019-05-07T18:57:22.058Z,0.53
2019-05-07T18:59:47.398Z,0.60
2019-05-07T19:02:14.568Z,0.53
2019-05-07T19:04:42.265Z,0.60
2019-05-07T19:07:08.875Z,0.60
2019-05-07T19:09:36.187Z,0.73
2019-05-07T19:12:03.342Z,0.60
2019-05-07T19:14:33.147Z,0.70
2019-05-07T19:16:57.693Z,0.60
2019-05-07T19:19:24.809Z,0.80
2019-05-07T19:21:52.972Z,0.67
2019-05-07T19:24:19.082Z,0.70
2019-05-07T19:26:46.176Z,0.70
2019-05-07T19:29:13.268Z,0.63
2019-05-07T19:31:41.835Z,0.63
2019-05-07T19:34:07.559Z,0.67
2019-05-07T19:36:34.672Z,0.70
2019-05-07T19:39:02.067Z,0.50
2019-05-07T19:41:29.135Z,0.77
2019-05-07T19:43:56.219Z,0.57
2019-05-07T19:46:23.335Z,0.70
2019-05-07T19:48:52.098Z,0.80
2019-05-07T19:51:17.636Z,0.70
2019-05-07T19:53:44.746Z,0.90
2019-05-07T19:56:16.070Z,0.67
2019-05-07T19:58:43.267Z,0.80
2019-05-07T20:01:12.101Z,0.73
2019-05-07T20:03:37.598Z,0.70
2019-05-07T20:06:04.939Z,0.70
2019-05-07T20:08:32.506Z,0.70
2019-05-07T20:11:02.908Z,0.77
2019-05-07T20:13:31.882Z,0.80
2019-05-07T20:16:02.851Z,0.77
2019-05-07T20:18:29.368Z,0.77
2019-05-07T20:20:56.487Z,1.03
2019-05-07T20:23:23.673Z,1.10
2019-05-07T20:25:52.767Z,0.90
2019-05-07T20:28:18.148Z,0.90
2019-05-07T20:30:45.335Z,0.97
2019-05-07T20:33:12.568Z,1.10
2019-05-07T20:35:41.887Z,0.87
2019-05-07T20:38:06.823Z,0.70
2019-05-07T20:40:33.993Z,1.20
2019-05-07T20:43:01.909Z,1.03
2019-05-07T20:45:28.366Z,0.80
2019-05-07T20:47:55.498Z,1.00
2019-05-07T20:50:22.615Z,1.20
2019-05-07T20:52:50.027Z,1.30
2019-05-07T20:55:30.859Z,1.23
2019-05-07T20:57:54.944Z,1.10
2019-05-07T21:00:24.330Z,1.37
2019-05-07T21:02:56.174Z,1.20
2019-05-07T21:05:23.307Z,1.50
2019-05-07T21:07:52.368Z,1.43
2019-05-07T21:10:17.741Z,1.70
2019-05-07T21:12:44.955Z,1.43
2019-05-07T21:15:12.433Z,1.83
2019-05-07T21:17:39.184Z,1.97
2019-05-07T21:20:06.285Z,1.70
2019-05-07T21:22:33.477Z,2.00
2019-05-07T21:25:02.621Z,1.83
2019-05-07T21:27:27.657Z,2.10
2019-05-07T21:29:55.095Z,2.40
2019-05-07T21:32:23.072Z,2.10
2019-05-07T21:34:49.478Z,2.10
2019-05-07T21:37:16.571Z,2.30
2019-05-07T21:39:43.755Z,1.97
2019-05-07T21:42:13.885Z,2.30
2019-05-07T21:44:38.499Z,2.33
2019-05-07T21:47:05.618Z,1.93
2019-05-07T21:49:32.820Z,2.40
2019-05-07T21:52:01.800Z,1.83
2019-05-07T21:54:36.129Z,2.27
2019-05-07T21:57:09.748Z,2.07
2019-05-07T21:59:36.847Z,2.03
2019-05-07T22:02:08.691Z,2.10
2019-05-07T22:04:35.831Z,2.40
2019-05-07T22:07:03.107Z,1.97
2019-05-07T22:09:30.163Z,2.10
2019-05-07T22:11:57.351Z,2.13
2019-05-07T22:14:24.535Z,2.13
2019-05-07T22:16:54.192Z,2.33
2019-05-07T22:19:18.879Z,2.30
2019-05-07T22:21:45.958Z,2.37
2019-05-07T22:24:15.084Z,2.53
2019-05-07T22:26:42.016Z,2.30
2019-05-07T22:29:07.391Z,1.97
2019-05-07T22:31:39.180Z,2.00
2019-05-07T22:34:12.842Z,2.40
2019-05-07T22:36:38.121Z,2.57
2019-05-07T22:39:05.816Z,2.47
2019-05-07T22:41:32.887Z,2.07
2019-05-07T22:44:02.394Z,2.10
2019-05-07T22:46:27.164Z,2.60
2019-05-07T22:48:54.330Z,2.67
2019-05-07T22:51:22.835Z,2.20
2019-05-07T22:53:48.881Z,2.57
2019-05-07T22:56:16.301Z,2.63
2019-05-07T22:58:46.903Z,2.67
2019-05-07T23:01:14.059Z,2.77
2019-05-07T23:03:43.019Z,2.57
2019-05-07T23:06:08.319Z,2.70
2019-05-07T23:08:36.901Z,2.53
2019-05-07T23:11:04.183Z,2.40
2019-05-07T23:13:31.897Z,2.30
2019-05-07T23:15:58.472Z,2.30
2019-05-07T23:18:25.554Z,2.80
2019-05-07T23:20:52.804Z,2.57
2019-05-07T23:23:21.766Z,2.53
2019-05-07T23:25:47.195Z,2.37
2019-05-07T23:28:14.375Z,2.43
2019-05-07T23:30:42.143Z,2.37
2019-05-07T23:33:08.835Z,2.40
2019-05-07T23:35:35.992Z,2.40
2019-05-07T23:38:03.096Z,2.60
2019-05-07T23:40:34.976Z,2.20
2019-05-07T23:43:02.862Z,2.53
2019-05-07T23:45:29.412Z,2.90
2019-05-07T23:47:56.491Z,2.37
2019-05-07T23:50:23.664Z,2.10
2019-05-07T23:52:52.741Z,2.33
2019-05-07T23:55:18.014Z,2.40
2019-05-07T23:57:45.225Z,2.47
